sensor_id;sensor_type;location;lat;lon;timestamp;P1;durP1;ratioP1;P2;durP2;ratioP2
39612;SDS011;25303;48.896;13.342;2024-01-07T00:01:08;1.40;;;0.80;;
39612;SDS011;25303;48.896;13.342;2024-01-07T00:11:13;0.65;;;0.40;;
39612;SDS011;25303;48.896;13.342;2024-01-07T00:21:16;0.82;;;0.38;;
39612;SDS011;25303;48.896;13.342;2024-01-07T00:31:21;0.70;;;0.40;;
39612;SDS011;25303;48.896;13.342;2024-01-07T00:41:24;1.30;;;0.50;;
39612;SDS011;25303;48.896;13.342;2024-01-07T00:51:28;0.50;;;0.30;;
39612;SDS011;25303;48.896;13.342;2024-01-07T01:01:31;0.63;;;0.40;;
39612;SDS011;25303;48.896;13.342;2024-01-07T01:11:36;1.05;;;0.50;;
39612;SDS011;25303;48.896;13.342;2024-01-07T01:21:39;1.08;;;0.57;;
39612;SDS011;25303;48.896;13.342;2024-01-07T01:31:44;0.88;;;0.40;;
39612;SDS011;25303;48.896;13.342;2024-01-07T01:41:47;0.50;;;0.40;;
39612;SDS011;25303;48.896;13.342;2024-01-07T01:51:51;0.77;;;0.30;;
39612;SDS011;25303;48.896;13.342;2024-01-07T02:01:54;1.30;;;0.52;;
39612;SDS011;25303;48.896;13.342;2024-01-07T02:12:02;0.90;;;0.40;;
39612;SDS011;25303;48.896;13.342;2024-01-07T02:32:10;0.98;;;0.40;;
39612;SDS011;25303;48.896;13.342;2024-01-07T02:42:13;2.00;;;0.32;;
39612;SDS011;25303;48.896;13.342;2024-01-07T02:52:17;0.80;;;0.30;;
39612;SDS011;25303;48.896;13.342;2024-01-07T03:02:20;0.95;;;0.40;;
39612;SDS011;25303;48.896;13.342;2024-01-07T03:12:24;1.75;;;0.50;;
39612;SDS011;25303;48.896;13.342;2024-01-07T03:22:27;3.83;;;1.17;;
39612;SDS011;25303;48.896;13.342;2024-01-07T03:32:32;2.05;;;0.75;;
39612;SDS011;25303;48.896;13.342;2024-01-07T03:42:35;2.08;;;0.57;;
39612;SDS011;25303;48.896;13.342;2024-01-07T03:52:39;1.55;;;0.80;;
39612;SDS011;25303;48.896;13.342;2024-01-07T04:02:42;2.42;;;0.88;;
39612;SDS011;25303;48.896;13.342;2024-01-07T04:12:46;2.85;;;0.80;;
39612;SDS011;25303;48.896;13.342;2024-01-07T04:22:50;2.47;;;0.70;;
39612;SDS011;25303;48.896;13.342;2024-01-07T04:32:54;2.13;;;0.95;;
39612;SDS011;25303;48.896;13.342;2024-01-07T04:42:57;1.08;;;0.40;;
39612;SDS011;25303;48.896;13.342;2024-01-07T04:53:01;1.48;;;0.70;;
39612;SDS011;25303;48.896;13.342;2024-01-07T05:03:05;3.38;;;1.10;;
39612;SDS011;25303;48.896;13.342;2024-01-07T05:13:09;1.23;;;0.50;;
39612;SDS011;25303;48.896;13.342;2024-01-07T05:23:12;1.75;;;0.63;;
39612;SDS011;25303;48.896;13.342;2024-01-07T05:33:16;0.82;;;0.45;;
39612;SDS011;25303;48.896;13.342;2024-01-07T05:43:19;1.65;;;0.65;;
39612;SDS011;25303;48.896;13.342;2024-01-07T05:53:24;3.28;;;1.27;;
39612;SDS011;25303;48.896;13.342;2024-01-07T06:03:27;1.95;;;0.70;;
39612;SDS011;25303;48.896;13.342;2024-01-07T06:13:32;1.80;;;0.88;;
39612;SDS011;25303;48.896;13.342;2024-01-07T06:23:35;1.77;;;1.00;;
39612;SDS011;25303;48.896;13.342;2024-01-07T06:33:39;1.48;;;0.82;;
39612;SDS011;25303;48.896;13.342;2024-01-07T06:43:42;2.55;;;1.15;;
39612;SDS011;25303;48.896;13.342;2024-01-07T06:53:46;1.52;;;0.85;;
39612;SDS011;25303;48.896;13.342;2024-01-07T07:03:52;2.08;;;1.00;;
39612;SDS011;25303;48.896;13.342;2024-01-07T07:13:56;2.75;;;1.35;;
39612;SDS011;25303;48.896;13.342;2024-01-07T07:23:59;1.95;;;1.15;;
39612;SDS011;25303;48.896;13.342;2024-01-07T07:34:04;3.50;;;1.60;;
39612;SDS011;25303;48.896;13.342;2024-01-07T07:44:07;8.60;;;3.88;;
39612;SDS011;25303;48.896;13.342;2024-01-07T07:54:13;5.43;;;1.95;;
39612;SDS011;25303;48.896;13.342;2024-01-07T08:04:16;11.05;;;3.20;;
39612;SDS011;25303;48.896;13.342;2024-01-07T08:14:20;12.63;;;4.05;;
39612;SDS011;25303;48.896;13.342;2024-01-07T08:24:23;3.92;;;1.95;;
39612;SDS011;25303;48.896;13.342;2024-01-07T08:34:27;4.43;;;2.22;;
39612;SDS011;25303;48.896;13.342;2024-01-07T08:44:30;5.07;;;2.10;;
39612;SDS011;25303;48.896;13.342;2024-01-07T08:54:35;6.85;;;2.60;;
39612;SDS011;25303;48.896;13.342;2024-01-07T09:04:38;22.67;;;11.48;;
39612;SDS011;25303;48.896;13.342;2024-01-07T09:14:42;6.65;;;3.35;;
39612;SDS011;25303;48.896;13.342;2024-01-07T09:24:45;2.90;;;1.48;;
39612;SDS011;25303;48.896;13.342;2024-01-07T09:34:49;2.92;;;1.70;;
39612;SDS011;25303;48.896;13.342;2024-01-07T09:44:52;3.83;;;1.63;;
39612;SDS011;25303;48.896;13.342;2024-01-07T09:54:58;3.20;;;1.63;;
39612;SDS011;25303;48.896;13.342;2024-01-07T10:05:02;3.40;;;1.70;;
39612;SDS011;25303;48.896;13.342;2024-01-07T10:15:07;3.25;;;1.60;;
39612;SDS011;25303;48.896;13.342;2024-01-07T10:25:10;3.53;;;1.85;;
39612;SDS011;25303;48.896;13.342;2024-01-07T10:35:15;2.58;;;1.55;;
39612;SDS011;25303;48.896;13.342;2024-01-07T10:45:20;4.15;;;2.25;;
39612;SDS011;25303;48.896;13.342;2024-01-07T10:55:25;3.58;;;1.92;;
39612;SDS011;25303;48.896;13.342;2024-01-07T11:05:34;3.28;;;1.77;;
39612;SDS011;25303;48.896;13.342;2024-01-07T11:15:54;4.40;;;2.15;;
39612;SDS011;25303;48.896;13.342;2024-01-07T11:25:58;4.38;;;2.30;;
39612;SDS011;25303;48.896;13.342;2024-01-07T11:36:02;4.32;;;2.00;;
39612;SDS011;25303;48.896;13.342;2024-01-07T11:46:07;4.60;;;2.30;;
39612;SDS011;25303;48.896;13.342;2024-01-07T11:56:12;4.45;;;2.20;;
39612;SDS011;25303;48.896;13.342;2024-01-07T12:06:15;4.03;;;2.03;;
39612;SDS011;25303;48.896;13.342;2024-01-07T12:16:19;3.83;;;1.80;;
39612;SDS011;25303;48.896;13.342;2024-01-07T12:26:25;3.45;;;2.25;;
39612;SDS011;25303;48.896;13.342;2024-01-07T12:36:30;3.42;;;2.10;;
39612;SDS011;25303;48.896;13.342;2024-01-07T12:46:34;4.18;;;2.08;;
39612;SDS011;25303;48.896;13.342;2024-01-07T12:56:38;6.35;;;2.28;;
39612;SDS011;25303;48.896;13.342;2024-01-07T13:06:41;4.93;;;2.63;;
39612;SDS011;25303;48.896;13.342;2024-01-07T13:16:45;5.50;;;2.50;;
39612;SDS011;25303;48.896;13.342;2024-01-07T13:26:49;4.28;;;2.45;;
39612;SDS011;25303;48.896;13.342;2024-01-07T13:36:53;3.63;;;2.05;;
39612;SDS011;25303;48.896;13.342;2024-01-07T13:46:57;5.13;;;2.80;;
39612;SDS011;25303;48.896;13.342;2024-01-07T13:57:02;6.63;;;3.20;;
39612;SDS011;25303;48.896;13.342;2024-01-07T14:07:05;7.45;;;3.30;;
39612;SDS011;25303;48.896;13.342;2024-01-07T14:17:09;7.30;;;3.70;;
39612;SDS011;25303;48.896;13.342;2024-01-07T14:27:14;7.65;;;3.55;;
39612;SDS011;25303;48.896;13.342;2024-01-07T14:37:18;8.95;;;3.13;;
39612;SDS011;25303;48.896;13.342;2024-01-07T14:47:21;6.38;;;3.30;;
39612;SDS011;25303;48.896;13.342;2024-01-07T14:57:26;6.85;;;3.05;;
39612;SDS011;25303;48.896;13.342;2024-01-07T15:07:29;8.18;;;3.63;;
39612;SDS011;25303;48.896;13.342;2024-01-07T15:17:33;7.75;;;3.75;;
39612;SDS011;25303;48.896;13.342;2024-01-07T15:27:36;7.40;;;3.60;;
39612;SDS011;25303;48.896;13.342;2024-01-07T15:37:41;7.50;;;3.35;;
39612;SDS011;25303;48.896;13.342;2024-01-07T15:47:44;7.05;;;3.30;;
39612;SDS011;25303;48.896;13.342;2024-01-07T15:57:49;5.97;;;2.90;;
39612;SDS011;25303;48.896;13.342;2024-01-07T16:07:53;9.55;;;4.47;;
39612;SDS011;25303;48.896;13.342;2024-01-07T16:17:57;8.18;;;3.80;;
39612;SDS011;25303;48.896;13.342;2024-01-07T16:28:01;7.32;;;3.67;;
39612;SDS011;25303;48.896;13.342;2024-01-07T16:38:05;13.13;;;7.03;;
39612;SDS011;25303;48.896;13.342;2024-01-07T16:48:08;9.38;;;4.53;;
39612;SDS011;25303;48.896;13.342;2024-01-07T16:58:14;9.70;;;4.40;;
39612;SDS011;25303;48.896;13.342;2024-01-07T17:08:17;9.85;;;4.70;;
39612;SDS011;25303;48.896;13.342;2024-01-07T17:18:22;10.63;;;4.80;;
39612;SDS011;25303;48.896;13.342;2024-01-07T17:28:25;11.57;;;5.47;;
39612;SDS011;25303;48.896;13.342;2024-01-07T17:38:29;15.13;;;5.43;;
39612;SDS011;25303;48.896;13.342;2024-01-07T17:48:32;11.73;;;5.00;;
39612;SDS011;25303;48.896;13.342;2024-01-07T17:58:37;11.65;;;5.13;;
39612;SDS011;25303;48.896;13.342;2024-01-07T18:08:40;10.43;;;5.13;;
39612;SDS011;25303;48.896;13.342;2024-01-07T18:18:54;9.43;;;4.13;;
39612;SDS011;25303;48.896;13.342;2024-01-07T18:28:57;8.80;;;4.57;;
39612;SDS011;25303;48.896;13.342;2024-01-07T18:39:02;8.20;;;3.67;;
39612;SDS011;25303;48.896;13.342;2024-01-07T18:49:08;8.95;;;4.30;;
39612;SDS011;25303;48.896;13.342;2024-01-07T18:59:13;8.75;;;4.20;;
39612;SDS011;25303;48.896;13.342;2024-01-07T19:09:16;8.48;;;3.72;;
39612;SDS011;25303;48.896;13.342;2024-01-07T19:19:22;9.57;;;3.50;;
39612;SDS011;25303;48.896;13.342;2024-01-07T19:29:25;6.80;;;3.30;;
39612;SDS011;25303;48.896;13.342;2024-01-07T19:39:30;8.10;;;3.30;;
39612;SDS011;25303;48.896;13.342;2024-01-07T19:49:35;7.10;;;2.88;;
39612;SDS011;25303;48.896;13.342;2024-01-07T19:59:39;4.78;;;2.50;;
39612;SDS011;25303;48.896;13.342;2024-01-07T20:09:42;5.68;;;2.40;;
39612;SDS011;25303;48.896;13.342;2024-01-07T20:19:46;6.55;;;2.60;;
39612;SDS011;25303;48.896;13.342;2024-01-07T20:29:49;5.88;;;2.67;;
39612;SDS011;25303;48.896;13.342;2024-01-07T20:39:54;4.28;;;2.03;;
39612;SDS011;25303;48.896;13.342;2024-01-07T20:49:57;6.50;;;2.50;;
39612;SDS011;25303;48.896;13.342;2024-01-07T21:00:02;5.90;;;2.80;;
39612;SDS011;25303;48.896;13.342;2024-01-07T21:10:07;5.78;;;2.65;;
39612;SDS011;25303;48.896;13.342;2024-01-07T21:20:12;7.70;;;3.13;;
39612;SDS011;25303;48.896;13.342;2024-01-07T21:30:15;6.35;;;2.70;;
39612;SDS011;25303;48.896;13.342;2024-01-07T21:40:20;5.97;;;2.42;;
39612;SDS011;25303;48.896;13.342;2024-01-07T21:50:23;6.60;;;3.13;;
39612;SDS011;25303;48.896;13.342;2024-01-07T22:00:28;5.47;;;2.08;;
39612;SDS011;25303;48.896;13.342;2024-01-07T22:10:31;4.47;;;1.83;;
39612;SDS011;25303;48.896;13.342;2024-01-07T22:20:35;3.88;;;1.50;;
39612;SDS011;25303;48.896;13.342;2024-01-07T22:30:38;4.03;;;1.52;;
39612;SDS011;25303;48.896;13.342;2024-01-07T22:40:43;3.58;;;1.33;;
39612;SDS011;25303;48.896;13.342;2024-01-07T22:50:46;4.00;;;1.90;;
39612;SDS011;25303;48.896;13.342;2024-01-07T23:00:51;3.40;;;1.73;;
39612;SDS011;25303;48.896;13.342;2024-01-07T23:10:54;3.08;;;1.35;;
39612;SDS011;25303;48.896;13.342;2024-01-07T23:20:58;3.15;;;1.38;;
39612;SDS011;25303;48.896;13.342;2024-01-07T23:31:02;3.35;;;1.52;;
39612;SDS011;25303;48.896;13.342;2024-01-07T23:41:06;1.95;;;1.05;;
39612;SDS011;25303;48.896;13.342;2024-01-07T23:51:10;3.40;;;1.63;;
